sensor_id;sensor_type;location;lat;lon;timestamp;pressure;altitude;pressure_sealevel;temperature;humidity
35331;BME280;21441;52.190;20.910;2023-05-10T00:01:49;100785.78;;;8.32;51.66
35331;BME280;21441;52.190;20.910;2023-05-10T00:04:16;100783.72;;;8.25;51.63
35331;BME280;21441;52.190;20.910;2023-05-10T00:06:45;100774.75;;;8.26;51.35
35331;BME280;21441;52.190;20.910;2023-05-10T00:09:12;100770.41;;;8.25;51.24
35331;BME280;21441;52.190;20.910;2023-05-10T00:11:39;100774.34;;;8.21;51.51
35331;BME280;21441;52.190;20.910;2023-05-10T00:14:06;100771.50;;;8.23;51.54
35331;BME280;21441;52.190;20.910;2023-05-10T00:16:33;100763.81;;;8.30;51.32
35331;BME280;21441;52.190;20.910;2023-05-10T00:19:00;100762.97;;;8.29;51.51
35331;BME280;21441;52.190;20.910;2023-05-10T00:21:28;100758.41;;;8.21;51.51
35331;BME280;21441;52.190;20.910;2023-05-10T00:23:56;100758.22;;;8.23;51.77
35331;BME280;21441;52.190;20.910;2023-05-10T00:26:23;100752.38;;;8.19;51.83
35331;BME280;21441;52.190;20.910;2023-05-10T00:28:50;100750.97;;;8.15;52.17
35331;BME280;21441;52.190;20.910;2023-05-10T00:31:18;100754.47;;;8.25;51.35
35331;BME280;21441;52.190;20.910;2023-05-10T00:33:45;100759.09;;;8.23;51.55
35331;BME280;21441;52.190;20.910;2023-05-10T00:36:12;100752.66;;;8.16;51.73
35331;BME280;21441;52.190;20.910;2023-05-10T00:38:39;100745.81;;;8.14;51.71
35331;BME280;21441;52.190;20.910;2023-05-10T00:41:08;100747.19;;;8.18;51.55
35331;BME280;21441;52.190;20.910;2023-05-10T00:43:35;100749.59;;;8.11;51.49
35331;BME280;21441;52.190;20.910;2023-05-10T00:46:03;100749.19;;;7.96;51.94
35331;BME280;21441;52.190;20.910;2023-05-10T00:48:30;100750.03;;;8.06;51.42
35331;BME280;21441;52.190;20.910;2023-05-10T00:50:58;100749.44;;;8.03;51.93
35331;BME280;21441;52.190;20.910;2023-05-10T00:53:25;100750.56;;;8.00;51.75
35331;BME280;21441;52.190;20.910;2023-05-10T00:55:52;100752.53;;;7.98;51.62
35331;BME280;21441;52.190;20.910;2023-05-10T00:58:20;100744.72;;;8.06;51.62
35331;BME280;21441;52.190;20.910;2023-05-10T01:00:50;100748.75;;;8.01;51.37
35331;BME280;21441;52.190;20.910;2023-05-10T01:03:18;100744.03;;;7.85;51.76
35331;BME280;21441;52.190;20.910;2023-05-10T01:05:45;100742.63;;;7.91;51.76
35331;BME280;21441;52.190;20.910;2023-05-10T01:08:13;100748.38;;;7.86;51.99
35331;BME280;21441;52.190;20.910;2023-05-10T01:10:40;100736.22;;;7.74;51.97
35331;BME280;21441;52.190;20.910;2023-05-10T01:13:07;100740.41;;;7.86;52.25
35331;BME280;21441;52.190;20.910;2023-05-10T01:15:36;100743.31;;;8.02;51.74
35331;BME280;21441;52.190;20.910;2023-05-10T01:18:04;100737.03;;;7.74;52.11
35331;BME280;21441;52.190;20.910;2023-05-10T01:20:37;100739.72;;;7.64;52.77
35331;BME280;21441;52.190;20.910;2023-05-10T01:23:33;100731.31;;;7.59;52.75
35331;BME280;21441;52.190;20.910;2023-05-10T01:26:31;100720.16;;;7.56;52.40
35331;BME280;21441;52.190;20.910;2023-05-10T01:29:17;100730.06;;;7.63;52.67
35331;BME280;21441;52.190;20.910;2023-05-10T01:32:14;100737.31;;;7.61;52.70
35331;BME280;21441;52.190;20.910;2023-05-10T01:34:48;100741.66;;;7.43;52.85
35331;BME280;21441;52.190;20.910;2023-05-10T01:37:23;100731.88;;;7.43;53.23
35331;BME280;21441;52.190;20.910;2023-05-10T01:40:01;100735.06;;;7.37;53.21
35331;BME280;21441;52.190;20.910;2023-05-10T01:42:37;100737.59;;;7.39;53.48
35331;BME280;21441;52.190;20.910;2023-05-10T01:45:11;100730.63;;;7.38;53.76
35331;BME280;21441;52.190;20.910;2023-05-10T01:47:44;100728.94;;;7.47;53.43
35331;BME280;21441;52.190;20.910;2023-05-10T01:50:17;100732.84;;;7.42;53.61
35331;BME280;21441;52.190;20.910;2023-05-10T01:52:50;100725.88;;;7.51;53.35
35331;BME280;21441;52.190;20.910;2023-05-10T01:55:21;100723.22;;;7.32;53.83
35331;BME280;21441;52.190;20.910;2023-05-10T01:57:58;100724.47;;;7.47;53.45
35331;BME280;21441;52.190;20.910;2023-05-10T02:00:28;100723.34;;;7.30;53.60
35331;BME280;21441;52.190;20.910;2023-05-10T02:03:00;100729.34;;;7.22;53.75
35331;BME280;21441;52.190;20.910;2023-05-10T02:05:29;100727.22;;;7.26;53.39
35331;BME280;21441;52.190;20.910;2023-05-10T02:08:00;100719.00;;;7.29;53.49
35331;BME280;21441;52.190;20.910;2023-05-10T02:10:28;100722.78;;;7.36;53.11
35331;BME280;21441;52.190;20.910;2023-05-10T02:12:58;100724.75;;;7.25;53.35
35331;BME280;21441;52.190;20.910;2023-05-10T02:15:26;100719.28;;;7.16;53.66
35331;BME280;21441;52.190;20.910;2023-05-10T02:17:55;100726.53;;;7.24;53.47
35331;BME280;21441;52.190;20.910;2023-05-10T02:20:26;100721.50;;;7.31;53.35
35331;BME280;21441;52.190;20.910;2023-05-10T02:22:55;100723.88;;;7.24;53.72
35331;BME280;21441;52.190;20.910;2023-05-10T02:25:24;100714.09;;;7.15;54.10
35331;BME280;21441;52.190;20.910;2023-05-10T02:27:54;100714.75;;;6.97;54.35
35331;BME280;21441;52.190;20.910;2023-05-10T02:30:23;100718.00;;;7.01;54.53
35331;BME280;21441;52.190;20.910;2023-05-10T02:32:51;100712.22;;;6.96;54.82
35331;BME280;21441;52.190;20.910;2023-05-10T02:35:19;100714.03;;;6.86;55.02
35331;BME280;21441;52.190;20.910;2023-05-10T02:37:51;100711.09;;;6.89;55.40
35331;BME280;21441;52.190;20.910;2023-05-10T02:40:19;100715.41;;;6.80;55.48
35331;BME280;21441;52.190;20.910;2023-05-10T02:42:50;100713.91;;;6.56;56.52
35331;BME280;21441;52.190;20.910;2023-05-10T02:45:21;100711.66;;;6.42;57.29
35331;BME280;21441;52.190;20.910;2023-05-10T02:47:50;100713.91;;;6.47;56.67
35331;BME280;21441;52.190;20.910;2023-05-10T02:50:18;100718.50;;;6.45;57.14
35331;BME280;21441;52.190;20.910;2023-05-10T02:52:49;100715.31;;;6.51;57.19
35331;BME280;21441;52.190;20.910;2023-05-10T02:55:21;100719.22;;;6.56;56.52
35331;BME280;21441;52.190;20.910;2023-05-10T02:57:52;100715.44;;;6.49;56.72
35331;BME280;21441;52.190;20.910;2023-05-10T03:00:22;100724.94;;;6.52;56.99
35331;BME280;21441;52.190;20.910;2023-05-10T03:02:51;100718.09;;;6.49;57.23
35331;BME280;21441;52.190;20.910;2023-05-10T03:05:18;100713.06;;;6.46;57.11
35331;BME280;21441;52.190;20.910;2023-05-10T03:07:46;100720.91;;;6.57;57.15
35331;BME280;21441;52.190;20.910;2023-05-10T03:10:14;100721.34;;;6.63;56.87
35331;BME280;21441;52.190;20.910;2023-05-10T03:12:57;100718.00;;;6.60;56.93
35331;BME280;21441;52.190;20.910;2023-05-10T03:15:36;100712.03;;;6.68;56.60
35331;BME280;21441;52.190;20.910;2023-05-10T03:18:07;100720.00;;;6.78;56.12
35331;BME280;21441;52.190;20.910;2023-05-10T03:20:42;100714.16;;;6.74;55.92
35331;BME280;21441;52.190;20.910;2023-05-10T03:23:12;100712.34;;;6.75;56.23
35331;BME280;21441;52.190;20.910;2023-05-10T03:25:41;100721.00;;;6.87;56.16
35331;BME280;21441;52.190;20.910;2023-05-10T03:28:11;100717.41;;;6.97;55.71
35331;BME280;21441;52.190;20.910;2023-05-10T03:30:38;100715.41;;;6.80;56.17
35331;BME280;21441;52.190;20.910;2023-05-10T03:33:06;100707.50;;;6.99;56.01
35331;BME280;21441;52.190;20.910;2023-05-10T03:35:33;100718.00;;;7.11;55.54
35331;BME280;21441;52.190;20.910;2023-05-10T03:38:01;100712.28;;;7.15;55.49
35331;BME280;21441;52.190;20.910;2023-05-10T03:40:28;100713.53;;;7.11;55.33
35331;BME280;21441;52.190;20.910;2023-05-10T03:42:57;100717.16;;;7.10;55.36
35331;BME280;21441;52.190;20.910;2023-05-10T03:45:26;100711.03;;;7.10;55.67
35331;BME280;21441;52.190;20.910;2023-05-10T03:47:54;100714.66;;;7.28;55.29
35331;BME280;21441;52.190;20.910;2023-05-10T03:50:21;100712.59;;;7.51;54.54
35331;BME280;21441;52.190;20.910;2023-05-10T03:52:48;100713.84;;;7.47;54.47
35331;BME280;21441;52.190;20.910;2023-05-10T03:55:16;100711.59;;;7.52;54.00
35331;BME280;21441;52.190;20.910;2023-05-10T03:57:43;100705.47;;;7.52;54.29
35331;BME280;21441;52.190;20.910;2023-05-10T04:00:11;100709.94;;;7.71;53.56
35331;BME280;21441;52.190;20.910;2023-05-10T04:02:40;100713.97;;;7.84;53.65
35331;BME280;21441;52.190;20.910;2023-05-10T04:05:08;100711.19;;;7.86;53.43
35331;BME280;21441;52.190;20.910;2023-05-10T04:07:35;100716.19;;;7.99;53.46
35331;BME280;21441;52.190;20.910;2023-05-10T04:10:03;100717.25;;;8.16;53.17
35331;BME280;21441;52.190;20.910;2023-05-10T04:12:30;100718.44;;;7.94;53.17
35331;BME280;21441;52.190;20.910;2023-05-10T04:14:57;100724.00;;;8.00;53.48
35331;BME280;21441;52.190;20.910;2023-05-10T04:17:25;100721.78;;;7.96;53.26
35331;BME280;21441;52.190;20.910;2023-05-10T04:19:53;100715.47;;;8.06;53.36
35331;BME280;21441;52.190;20.910;2023-05-10T04:22:21;100725.81;;;8.10;53.44
35331;BME280;21441;52.190;20.910;2023-05-10T04:24:48;100720.75;;;8.26;52.91
35331;BME280;21441;52.190;20.910;2023-05-10T04:27:15;100718.00;;;8.08;53.14
35331;BME280;21441;52.190;20.910;2023-05-10T04:29:42;100725.66;;;8.11;52.93
35331;BME280;21441;52.190;20.910;2023-05-10T04:32:09;100714.81;;;7.95;52.67
35331;BME280;21441;52.190;20.910;2023-05-10T04:34:36;100725.56;;;7.93;53.65
35331;BME280;21441;52.190;20.910;2023-05-10T04:37:05;100726.63;;;8.20;53.08
35331;BME280;21441;52.190;20.910;2023-05-10T04:39:33;100719.63;;;8.19;52.96
35331;BME280;21441;52.190;20.910;2023-05-10T04:42:01;100721.97;;;8.32;52.98
35331;BME280;21441;52.190;20.910;2023-05-10T04:44:28;100725.59;;;8.50;52.21
35331;BME280;21441;52.190;20.910;2023-05-10T04:46:56;100733.13;;;8.55;52.16
35331;BME280;21441;52.190;20.910;2023-05-10T04:49:24;100726.44;;;8.51;52.02
35331;BME280;21441;52.190;20.910;2023-05-10T04:51:51;100726.88;;;8.46;52.53
35331;BME280;21441;52.190;20.910;2023-05-10T04:54:19;100730.97;;;8.68;52.43
35331;BME280;21441;52.190;20.910;2023-05-10T04:56:46;100725.47;;;8.79;51.59
35331;BME280;21441;52.190;20.910;2023-05-10T04:59:13;100726.94;;;8.92;51.64
35331;BME280;21441;52.190;20.910;2023-05-10T05:01:41;100722.81;;;9.07;51.57
35331;BME280;21441;52.190;20.910;2023-05-10T05:04:08;100724.09;;;9.03;51.40
35331;BME280;21441;52.190;20.910;2023-05-10T05:06:35;100714.13;;;9.05;51.15
35331;BME280;21441;52.190;20.910;2023-05-10T05:09:02;100730.03;;;9.15;50.78
35331;BME280;21441;52.190;20.910;2023-05-10T05:11:31;100723.28;;;9.20;50.86
35331;BME280;21441;52.190;20.910;2023-05-10T05:13:58;100723.31;;;9.11;51.18
35331;BME280;21441;52.190;20.910;2023-05-10T05:16:25;100727.59;;;9.21;50.78
35331;BME280;21441;52.190;20.910;2023-05-10T05:18:53;100727.16;;;9.44;50.72
35331;BME280;21441;52.190;20.910;2023-05-10T05:21:20;100729.84;;;9.62;50.28
35331;BME280;21441;52.190;20.910;2023-05-10T05:23:47;100718.63;;;9.76;51.35
35331;BME280;21441;52.190;20.910;2023-05-10T05:26:15;100726.06;;;9.73;49.79
35331;BME280;21441;52.190;20.910;2023-05-10T05:28:43;100719.88;;;9.90;50.43
35331;BME280;21441;52.190;20.910;2023-05-10T05:31:10;100726.91;;;9.91;50.02
35331;BME280;21441;52.190;20.910;2023-05-10T05:33:37;100723.03;;;10.11;49.96
35331;BME280;21441;52.190;20.910;2023-05-10T05:36:05;100723.59;;;10.15;49.33
35331;BME280;21441;52.190;20.910;2023-05-10T05:38:32;100714.06;;;10.12;49.31
35331;BME280;21441;52.190;20.910;2023-05-10T05:40:59;100717.69;;;10.29;49.28
35331;BME280;21441;52.190;20.910;2023-05-10T05:43:27;100728.81;;;10.51;48.67
35331;BME280;21441;52.190;20.910;2023-05-10T05:45:56;100722.41;;;10.36;49.33
35331;BME280;21441;52.190;20.910;2023-05-10T05:48:23;100713.56;;;10.69;49.55
35331;BME280;21441;52.190;20.910;2023-05-10T05:50:54;100712.41;;;10.72;48.59
35331;BME280;21441;52.190;20.910;2023-05-10T05:53:22;100719.00;;;10.94;48.88
35331;BME280;21441;52.190;20.910;2023-05-10T05:55:53;100723.50;;;11.02;48.53
35331;BME280;21441;52.190;20.910;2023-05-10T05:58:20;100720.22;;;11.08;48.11
35331;BME280;21441;52.190;20.910;2023-05-10T06:00:48;100725.09;;;11.29;48.33
35331;BME280;21441;52.190;20.910;2023-05-10T06:03:16;100718.78;;;11.38;47.73
35331;BME280;21441;52.190;20.910;2023-05-10T06:05:44;100726.97;;;11.53;47.04
35331;BME280;21441;52.190;20.910;2023-05-10T06:08:11;100716.13;;;11.71;47.56
35331;BME280;21441;52.190;20.910;2023-05-10T06:10:38;100704.94;;;11.51;47.47
35331;BME280;21441;52.190;20.910;2023-05-10T06:13:05;100721.13;;;11.74;47.63
35331;BME280;21441;52.190;20.910;2023-05-10T06:15:32;100725.66;;;11.73;47.11
35331;BME280;21441;52.190;20.910;2023-05-10T06:18:00;100725.66;;;11.98;47.31
35331;BME280;21441;52.190;20.910;2023-05-10T06:20:29;100726.34;;;12.16;46.77
35331;BME280;21441;52.190;20.910;2023-05-10T06:22:57;100718.31;;;12.16;46.32
35331;BME280;21441;52.190;20.910;2023-05-10T06:25:24;100728.16;;;12.24;45.48
35331;BME280;21441;52.190;20.910;2023-05-10T06:27:51;100727.16;;;12.25;45.75
35331;BME280;21441;52.190;20.910;2023-05-10T06:30:24;100726.63;;;12.30;46.37
35331;BME280;21441;52.190;20.910;2023-05-10T06:32:54;100721.06;;;12.56;45.63
35331;BME280;21441;52.190;20.910;2023-05-10T06:35:21;100717.38;;;12.49;45.90
35331;BME280;21441;52.190;20.910;2023-05-10T06:37:50;100734.94;;;12.51;46.12
35331;BME280;21441;52.190;20.910;2023-05-10T06:40:18;100721.22;;;12.54;44.83
35331;BME280;21441;52.190;20.910;2023-05-10T06:42:45;100718.16;;;12.66;44.77
35331;BME280;21441;52.190;20.910;2023-05-10T06:45:13;100714.97;;;12.70;45.10
35331;BME280;21441;52.190;20.910;2023-05-10T06:47:41;100720.69;;;12.98;45.14
35331;BME280;21441;52.190;20.910;2023-05-10T06:50:09;100712.88;;;12.89;43.33
35331;BME280;21441;52.190;20.910;2023-05-10T06:52:37;100718.53;;;13.02;44.62
35331;BME280;21441;52.190;20.910;2023-05-10T06:55:06;100715.53;;;13.28;43.48
35331;BME280;21441;52.190;20.910;2023-05-10T06:57:33;100713.59;;;13.45;43.04
35331;BME280;21441;52.190;20.910;2023-05-10T07:00:01;100712.34;;;13.56;43.07
35331;BME280;21441;52.190;20.910;2023-05-10T07:02:30;100709.81;;;13.54;43.23
35331;BME280;21441;52.190;20.910;2023-05-10T07:04:57;100706.97;;;13.56;41.86
35331;BME280;21441;52.190;20.910;2023-05-10T07:07:25;100705.41;;;13.38;41.78
35331;BME280;21441;52.190;20.910;2023-05-10T07:09:52;100709.22;;;13.67;42.50
35331;BME280;21441;52.190;20.910;2023-05-10T07:12:20;100707.56;;;13.43;42.06
35331;BME280;21441;52.190;20.910;2023-05-10T07:14:48;100698.88;;;13.64;42.28
35331;BME280;21441;52.190;20.910;2023-05-10T07:17:15;100698.84;;;13.87;41.82
35331;BME280;21441;52.190;20.910;2023-05-10T07:19:42;100707.63;;;13.81;41.48
35331;BME280;21441;52.190;20.910;2023-05-10T07:22:09;100700.03;;;13.85;38.64
35331;BME280;21441;52.190;20.910;2023-05-10T07:24:36;100705.47;;;13.76;38.57
35331;BME280;21441;52.190;20.910;2023-05-10T07:27:04;100698.50;;;13.67;37.16
35331;BME280;21441;52.190;20.910;2023-05-10T07:29:32;100693.13;;;13.67;38.04
35331;BME280;21441;52.190;20.910;2023-05-10T07:31:59;100694.78;;;13.91;37.81
35331;BME280;21441;52.190;20.910;2023-05-10T07:34:27;100705.00;;;14.11;36.86
35331;BME280;21441;52.190;20.910;2023-05-10T07:36:58;100704.63;;;14.14;35.81
35331;BME280;21441;52.190;20.910;2023-05-10T07:39:26;100714.38;;;13.92;35.15
35331;BME280;21441;52.190;20.910;2023-05-10T07:41:53;100707.47;;;13.97;35.06
35331;BME280;21441;52.190;20.910;2023-05-10T07:44:21;100706.44;;;13.98;35.39
35331;BME280;21441;52.190;20.910;2023-05-10T07:46:49;100709.66;;;13.94;36.66
35331;BME280;21441;52.190;20.910;2023-05-10T07:49:17;100712.19;;;13.95;35.48
35331;BME280;21441;52.190;20.910;2023-05-10T07:51:44;100700.56;;;14.03;35.25
35331;BME280;21441;52.190;20.910;2023-05-10T07:54:11;100700.66;;;14.10;35.37
35331;BME280;21441;52.190;20.910;2023-05-10T07:56:39;100690.75;;;14.10;34.93
35331;BME280;21441;52.190;20.910;2023-05-10T07:59:14;100688.91;;;14.11;35.40
35331;BME280;21441;52.190;20.910;2023-05-10T08:01:42;100684.66;;;14.16;35.28
35331;BME280;21441;52.190;20.910;2023-05-10T08:04:11;100699.53;;;14.49;35.42
35331;BME280;21441;52.190;20.910;2023-05-10T08:06:38;100684.03;;;14.74;34.83
35331;BME280;21441;52.190;20.910;2023-05-10T08:09:06;100678.75;;;14.65;34.56
35331;BME280;21441;52.190;20.910;2023-05-10T08:11:33;100681.66;;;14.85;34.29
35331;BME280;21441;52.190;20.910;2023-05-10T08:14:01;100705.19;;;14.98;33.46
35331;BME280;21441;52.190;20.910;2023-05-10T08:16:28;100665.88;;;14.76;33.24
35331;BME280;21441;52.190;20.910;2023-05-10T08:18:55;100674.09;;;14.89;34.04
35331;BME280;21441;52.190;20.910;2023-05-10T08:21:24;100671.84;;;14.93;33.79
35331;BME280;21441;52.190;20.910;2023-05-10T08:23:51;100670.50;;;14.67;33.88
35331;BME280;21441;52.190;20.910;2023-05-10T08:26:18;100676.63;;;14.97;33.19
35331;BME280;21441;52.190;20.910;2023-05-10T08:28:46;100687.22;;;14.84;33.55
35331;BME280;21441;52.190;20.910;2023-05-10T08:31:13;100685.66;;;14.90;33.51
35331;BME280;21441;52.190;20.910;2023-05-10T08:33:42;100657.88;;;14.82;34.02
35331;BME280;21441;52.190;20.910;2023-05-10T08:36:09;100697.66;;;15.09;34.08
35331;BME280;21441;52.190;20.910;2023-05-10T08:38:38;100674.34;;;14.94;34.83
35331;BME280;21441;52.190;20.910;2023-05-10T08:41:05;100687.22;;;14.84;33.86
35331;BME280;21441;52.190;20.910;2023-05-10T08:43:35;100683.59;;;15.06;35.70
35331;BME280;21441;52.190;20.910;2023-05-10T08:46:05;100680.72;;;15.30;34.65
35331;BME280;21441;52.190;20.910;2023-05-10T08:48:34;100686.16;;;15.36;33.55
35331;BME280;21441;52.190;20.910;2023-05-10T08:51:03;100676.56;;;15.27;34.47
35331;BME280;21441;52.190;20.910;2023-05-10T08:53:33;100673.69;;;15.50;33.61
35331;BME280;21441;52.190;20.910;2023-05-10T08:56:04;100691.94;;;15.55;32.69
35331;BME280;21441;52.190;20.910;2023-05-10T08:58:31;100674.31;;;15.31;33.34
35331;BME280;21441;52.190;20.910;2023-05-10T09:00:59;100669.50;;;15.47;32.85
35331;BME280;21441;52.190;20.910;2023-05-10T09:03:26;100680.38;;;15.82;33.63
35331;BME280;21441;52.190;20.910;2023-05-10T09:05:53;100668.22;;;15.86;31.03
35331;BME280;21441;52.190;20.910;2023-05-10T09:08:22;100674.88;;;15.69;32.22
35331;BME280;21441;52.190;20.910;2023-05-10T09:10:51;100655.81;;;15.64;32.15
35331;BME280;21441;52.190;20.910;2023-05-10T09:13:21;100664.78;;;15.71;32.36
35331;BME280;21441;52.190;20.910;2023-05-10T09:15:49;100666.97;;;15.89;33.27
35331;BME280;21441;52.190;20.910;2023-05-10T09:18:16;100655.22;;;15.90;31.50
35331;BME280;21441;52.190;20.910;2023-05-10T09:20:43;100656.22;;;16.17;31.73
35331;BME280;21441;52.190;20.910;2023-05-10T09:23:11;100630.34;;;16.16;30.42
35331;BME280;21441;52.190;20.910;2023-05-10T09:25:38;100646.88;;;16.13;31.54
35331;BME280;21441;52.190;20.910;2023-05-10T09:28:06;100635.84;;;16.36;31.36
35331;BME280;21441;52.190;20.910;2023-05-10T09:30:36;100654.06;;;16.41;31.63
35331;BME280;21441;52.190;20.910;2023-05-10T09:33:03;100650.69;;;16.25;31.93
35331;BME280;21441;52.190;20.910;2023-05-10T09:35:32;100646.47;;;16.51;32.70
35331;BME280;21441;52.190;20.910;2023-05-10T09:38:02;100643.50;;;16.39;31.86
35331;BME280;21441;52.190;20.910;2023-05-10T09:40:30;100644.75;;;16.43;31.74
35331;BME280;21441;52.190;20.910;2023-05-10T09:42:58;100656.91;;;16.74;33.02
35331;BME280;21441;52.190;20.910;2023-05-10T09:45:26;100642.16;;;16.63;32.26
35331;BME280;21441;52.190;20.910;2023-05-10T09:47:56;100631.09;;;16.45;31.81
35331;BME280;21441;52.190;20.910;2023-05-10T09:50:23;100646.31;;;16.66;32.29
35331;BME280;21441;52.190;20.910;2023-05-10T09:52:52;100637.41;;;16.65;32.26
35331;BME280;21441;52.190;20.910;2023-05-10T09:55:20;100644.50;;;16.73;32.09
35331;BME280;21441;52.190;20.910;2023-05-10T09:57:48;100636.88;;;16.42;32.25
35331;BME280;21441;52.190;20.910;2023-05-10T10:00:17;100642.72;;;16.52;31.81
35331;BME280;21441;52.190;20.910;2023-05-10T10:02:47;100639.59;;;16.48;32.50
35331;BME280;21441;52.190;20.910;2023-05-10T10:05:16;100627.34;;;16.81;32.14
35331;BME280;21441;52.190;20.910;2023-05-10T10:07:44;100618.75;;;16.70;31.46
35331;BME280;21441;52.190;20.910;2023-05-10T10:10:11;100634.22;;;17.03;33.26
35331;BME280;21441;52.190;20.910;2023-05-10T10:12:39;100624.38;;;16.69;32.19
35331;BME280;21441;52.190;20.910;2023-05-10T10:15:08;100593.13;;;16.81;30.85
35331;BME280;21441;52.190;20.910;2023-05-10T10:17:36;100621.59;;;17.04;31.75
35331;BME280;21441;52.190;20.910;2023-05-10T10:20:05;100616.84;;;17.13;30.36
35331;BME280;21441;52.190;20.910;2023-05-10T10:22:34;100591.97;;;17.17;31.33
35331;BME280;21441;52.190;20.910;2023-05-10T10:25:04;100608.31;;;17.02;31.25
35331;BME280;21441;52.190;20.910;2023-05-10T10:27:38;100606.66;;;17.15;31.28
35331;BME280;21441;52.190;20.910;2023-05-10T10:30:20;100602.34;;;17.47;31.59
35331;BME280;21441;52.190;20.910;2023-05-10T10:33:10;100609.81;;;17.51;31.33
35331;BME280;21441;52.190;20.910;2023-05-10T10:35:40;100597.78;;;17.34;30.46
35331;BME280;21441;52.190;20.910;2023-05-10T10:38:09;100596.94;;;17.20;30.01
35331;BME280;21441;52.190;20.910;2023-05-10T10:40:36;100601.50;;;17.20;30.54
35331;BME280;21441;52.190;20.910;2023-05-10T10:43:25;100596.31;;;17.25;31.59
35331;BME280;21441;52.190;20.910;2023-05-10T10:46:12;100590.53;;;17.48;30.49
35331;BME280;21441;52.190;20.910;2023-05-10T10:48:40;100596.75;;;17.55;30.59
35331;BME280;21441;52.190;20.910;2023-05-10T10:51:07;100599.63;;;17.27;30.64
35331;BME280;21441;52.190;20.910;2023-05-10T10:53:36;100595.50;;;17.24;29.87
35331;BME280;21441;52.190;20.910;2023-05-10T10:56:07;100581.38;;;17.49;29.75
35331;BME280;21441;52.190;20.910;2023-05-10T10:58:37;100571.63;;;17.88;30.82
35331;BME280;21441;52.190;20.910;2023-05-10T11:01:12;100583.88;;;17.50;29.84
35331;BME280;21441;52.190;20.910;2023-05-10T11:03:40;100580.56;;;17.62;29.82
35331;BME280;21441;52.190;20.910;2023-05-10T11:06:07;100579.72;;;17.88;30.74
35331;BME280;21441;52.190;20.910;2023-05-10T11:08:42;100584.66;;;18.04;29.58
35331;BME280;21441;52.190;20.910;2023-05-10T11:11:14;100579.28;;;17.84;30.16
35331;BME280;21441;52.190;20.910;2023-05-10T11:13:43;100564.13;;;17.97;29.95
35331;BME280;21441;52.190;20.910;2023-05-10T11:16:15;100552.50;;;17.96;29.29
35331;BME280;21441;52.190;20.910;2023-05-10T11:19:08;100573.69;;;17.79;29.41
35331;BME280;21441;52.190;20.910;2023-05-10T11:21:45;100562.47;;;17.76;28.61
35331;BME280;21441;52.190;20.910;2023-05-10T11:24:15;100570.16;;;17.92;30.35
35331;BME280;21441;52.190;20.910;2023-05-10T11:26:42;100575.56;;;17.85;29.40
35331;BME280;21441;52.190;20.910;2023-05-10T11:29:10;100569.72;;;17.95;29.73
35331;BME280;21441;52.190;20.910;2023-05-10T11:31:42;100574.22;;;18.21;29.79
35331;BME280;21441;52.190;20.910;2023-05-10T11:34:09;100577.59;;;18.10;30.21
35331;BME280;21441;52.190;20.910;2023-05-10T11:36:36;100569.63;;;18.28;29.78
35331;BME280;21441;52.190;20.910;2023-05-10T11:39:05;100563.66;;;18.13;30.09
35331;BME280;21441;52.190;20.910;2023-05-10T11:41:33;100567.00;;;18.02;29.98
35331;BME280;21441;52.190;20.910;2023-05-10T11:44:01;100564.69;;;18.12;30.89
35331;BME280;21441;52.190;20.910;2023-05-10T11:46:28;100557.78;;;18.68;31.21
35331;BME280;21441;52.190;20.910;2023-05-10T11:48:58;100561.13;;;18.63;29.82
35331;BME280;21441;52.190;20.910;2023-05-10T11:51:27;100550.66;;;18.42;30.15
35331;BME280;21441;52.190;20.910;2023-05-10T11:53:55;100548.72;;;18.04;30.81
35331;BME280;21441;52.190;20.910;2023-05-10T11:56:23;100543.03;;;18.32;30.68
35331;BME280;21441;52.190;20.910;2023-05-10T11:58:54;100546.94;;;18.81;29.71
35331;BME280;21441;52.190;20.910;2023-05-10T12:01:23;100549.06;;;18.66;29.91
35331;BME280;21441;52.190;20.910;2023-05-10T12:03:52;100546.88;;;18.88;29.47
35331;BME280;21441;52.190;20.910;2023-05-10T12:06:20;100543.66;;;18.66;31.13
35331;BME280;21441;52.190;20.910;2023-05-10T12:08:48;100567.13;;;18.33;30.25
35331;BME280;21441;52.190;20.910;2023-05-10T12:11:18;100544.47;;;18.34;30.38
35331;BME280;21441;52.190;20.910;2023-05-10T12:13:47;100538.31;;;18.59;29.50
35331;BME280;21441;52.190;20.910;2023-05-10T12:16:18;100543.53;;;18.54;29.41
35331;BME280;21441;52.190;20.910;2023-05-10T12:18:48;100526.75;;;18.45;29.68
35331;BME280;21441;52.190;20.910;2023-05-10T12:21:16;100540.63;;;18.55;29.86
35331;BME280;21441;52.190;20.910;2023-05-10T12:23:46;100540.44;;;18.89;29.18
35331;BME280;21441;52.190;20.910;2023-05-10T12:26:13;100549.44;;;18.76;29.37
35331;BME280;21441;52.190;20.910;2023-05-10T12:28:41;100549.00;;;18.79;30.51
35331;BME280;21441;52.190;20.910;2023-05-10T12:31:08;100557.41;;;18.64;30.34
35331;BME280;21441;52.190;20.910;2023-05-10T12:33:37;100538.09;;;18.61;29.29
35331;BME280;21441;52.190;20.910;2023-05-10T12:36:07;100535.41;;;18.92;30.12
35331;BME280;21441;52.190;20.910;2023-05-10T12:38:37;100532.66;;;18.99;30.18
35331;BME280;21441;52.190;20.910;2023-05-10T12:41:05;100522.09;;;18.98;29.19
35331;BME280;21441;52.190;20.910;2023-05-10T12:43:33;100534.13;;;19.02;30.19
35331;BME280;21441;52.190;20.910;2023-05-10T12:46:04;100551.16;;;19.02;29.64
35331;BME280;21441;52.190;20.910;2023-05-10T12:48:32;100538.63;;;18.76;29.80
35331;BME280;21441;52.190;20.910;2023-05-10T12:51:01;100536.13;;;18.74;29.28
35331;BME280;21441;52.190;20.910;2023-05-10T12:53:28;100538.63;;;18.76;29.37
35331;BME280;21441;52.190;20.910;2023-05-10T12:55:55;100548.16;;;18.85;30.51